createdAt,value
2022-08-20T00:01:02.024Z,5.20
2022-08-20T00:01:57.411Z,4.80
2022-08-20T00:02:56.322Z,5.60
2022-08-20T00:03:56.299Z,5.30
2022-08-20T00:04:56.272Z,5.20
2022-08-20T00:05:56.795Z,4.90
2022-08-20T00:06:56.243Z,5.10
2022-08-20T00:07:56.437Z,4.90
2022-08-20T00:08:56.234Z,4.60
2022-08-20T00:09:56.267Z,4.60
2022-08-20T00:10:56.186Z,5.10
2022-08-20T00:11:56.167Z,4.80
2022-08-20T00:12:56.139Z,5.10
2022-08-20T00:13:56.143Z,4.90
2022-08-20T00:14:56.094Z,4.80
2022-08-20T00:15:56.086Z,4.90
2022-08-20T00:16:56.104Z,5.30
2022-08-20T00:17:56.186Z,5.10
2022-08-20T00:18:56.032Z,5.10
2022-08-20T00:19:56.032Z,4.90
2022-08-20T00:20:55.993Z,4.90
2022-08-20T00:21:58.090Z,4.90
2022-08-20T00:22:55.973Z,5.00
2022-08-20T00:23:55.927Z,5.50
2022-08-20T00:24:55.965Z,4.70
2022-08-20T00:25:56.048Z,4.70
2022-08-20T00:26:55.873Z,5.00
2022-08-20T00:27:56.055Z,5.20
2022-08-20T00:28:55.838Z,4.80
2022-08-20T00:29:55.828Z,5.20
2022-08-20T00:30:55.815Z,5.20
2022-08-20T00:31:55.803Z,5.30
2022-08-20T00:32:55.747Z,5.20
2022-08-20T00:33:55.765Z,5.50
2022-08-20T00:34:55.798Z,5.40
2022-08-20T00:35:55.716Z,5.40
2022-08-20T00:36:55.705Z,5.00
2022-08-20T00:38:00.376Z,5.40
2022-08-20T00:38:56.671Z,5.10
2022-08-20T00:39:55.699Z,5.20
2022-08-20T00:40:55.694Z,5.50
2022-08-20T00:41:55.592Z,5.20
2022-08-20T00:42:55.678Z,5.60
2022-08-20T00:43:55.603Z,6.30
2022-08-20T00:44:57.188Z,5.50
2022-08-20T00:45:55.536Z,4.90
2022-08-20T00:46:55.521Z,5.50
2022-08-20T00:47:55.619Z,5.50
2022-08-20T00:48:55.484Z,5.10
2022-08-20T00:49:55.471Z,5.50
2022-08-20T00:50:55.490Z,5.50
2022-08-20T00:51:55.421Z,5.40
2022-08-20T00:52:55.460Z,5.70
2022-08-20T00:53:55.371Z,5.30
2022-08-20T00:54:55.363Z,6.00
2022-08-20T00:55:55.375Z,5.70
2022-08-20T00:56:55.313Z,5.50
2022-08-20T00:58:00.845Z,5.40
2022-08-20T00:58:56.294Z,5.40
2022-08-20T00:59:55.300Z,5.70
2022-08-20T01:00:55.254Z,5.60
2022-08-20T01:01:56.576Z,5.40
2022-08-20T01:02:55.237Z,5.40
2022-08-20T01:03:55.973Z,5.50
2022-08-20T01:04:55.182Z,5.20
2022-08-20T01:05:55.156Z,5.40
2022-08-20T01:06:55.203Z,5.70
2022-08-20T01:07:55.346Z,5.30
2022-08-20T01:08:55.151Z,5.20
2022-08-20T01:09:58.919Z,5.30
2022-08-20T01:10:55.162Z,5.50
2022-08-20T01:11:55.055Z,5.50
2022-08-20T01:12:58.997Z,5.60
2022-08-20T01:13:55.706Z,6.10
2022-08-20T01:14:54.994Z,6.10
2022-08-20T01:15:54.903Z,5.70
2022-08-20T01:16:54.951Z,5.50
2022-08-20T01:17:55.159Z,5.40
2022-08-20T01:18:54.911Z,5.70
2022-08-20T01:19:54.898Z,5.30
2022-08-20T01:20:54.890Z,5.60
2022-08-20T01:21:54.858Z,5.80
2022-08-20T01:22:54.835Z,5.60
2022-08-20T01:23:54.857Z,5.80
2022-08-20T01:24:54.811Z,5.70
2022-08-20T01:25:54.807Z,5.90
2022-08-20T01:26:54.798Z,5.90
2022-08-20T01:27:55.560Z,5.80
2022-08-20T01:28:54.753Z,6.20
2022-08-20T01:29:54.718Z,5.60
2022-08-20T01:30:54.680Z,5.60
2022-08-20T01:31:54.669Z,5.50
2022-08-20T01:32:54.668Z,5.60
2022-08-20T01:33:54.659Z,5.20
2022-08-20T01:34:54.620Z,5.50
2022-08-20T01:35:54.660Z,5.80
2022-08-20T01:36:54.606Z,7.60
2022-08-20T01:37:54.707Z,5.50
2022-08-20T01:38:54.947Z,5.40
2022-08-20T01:39:54.535Z,5.40
2022-08-20T01:40:54.511Z,5.20
2022-08-20T01:41:54.508Z,5.30
2022-08-20T01:42:59.514Z,4.80
2022-08-20T01:43:55.499Z,5.00
2022-08-20T01:44:54.472Z,5.50
2022-08-20T01:45:54.422Z,5.30
2022-08-20T01:46:54.403Z,5.80
2022-08-20T01:47:54.703Z,5.60
2022-08-20T01:48:54.391Z,5.90
2022-08-20T01:49:54.318Z,5.60
2022-08-20T01:50:54.314Z,5.70
2022-08-20T01:51:54.306Z,5.70
2022-08-20T01:52:54.282Z,5.70
2022-08-20T01:53:54.357Z,5.50
2022-08-20T01:54:54.269Z,5.90
2022-08-20T01:55:54.240Z,5.20
2022-08-20T01:56:54.212Z,5.50
2022-08-20T01:57:54.224Z,5.40
2022-08-20T01:58:56.028Z,8.00
2022-08-20T01:59:54.166Z,4.70
2022-08-20T02:00:54.145Z,5.30
2022-08-20T02:01:54.178Z,5.00
2022-08-20T02:02:54.206Z,5.10
2022-08-20T02:03:54.137Z,4.80
2022-08-20T02:04:54.075Z,5.10
2022-08-20T02:05:54.064Z,5.10
2022-08-20T02:06:56.325Z,5.10
2022-08-20T02:07:54.052Z,4.70
2022-08-20T02:08:54.030Z,4.80
2022-08-20T02:09:54.066Z,5.00
2022-08-20T02:10:53.974Z,4.90
2022-08-20T02:11:54.001Z,5.40
2022-08-20T02:12:53.941Z,5.40
2022-08-20T02:13:54.654Z,5.40
2022-08-20T02:14:53.945Z,5.30
2022-08-20T02:15:53.887Z,5.30
2022-08-20T02:16:55.073Z,5.20
2022-08-20T02:17:53.941Z,5.10
2022-08-20T02:18:53.849Z,5.30
2022-08-20T02:19:53.821Z,5.80
2022-08-20T02:20:53.917Z,5.50
2022-08-20T02:21:53.790Z,4.80
2022-08-20T02:22:53.751Z,5.10
2022-08-20T02:23:53.735Z,4.90
2022-08-20T02:24:53.709Z,4.90
2022-08-20T02:25:53.712Z,5.60
2022-08-20T02:26:53.686Z,4.90
2022-08-20T02:27:53.722Z,4.50
2022-08-20T02:28:53.611Z,4.90
2022-08-20T02:29:53.602Z,5.20
2022-08-20T02:30:53.683Z,4.60
2022-08-20T02:32:32.379Z,4.70
2022-08-20T02:32:56.250Z,4.90
2022-08-20T02:34:21.790Z,4.60
2022-08-20T02:34:54.425Z,5.00
2022-08-20T02:35:53.557Z,5.10
2022-08-20T02:36:53.526Z,4.70
2022-08-20T02:37:53.437Z,5.30
2022-08-20T02:38:53.431Z,4.70
2022-08-20T02:39:53.440Z,4.70
2022-08-20T02:40:53.429Z,5.10
2022-08-20T02:41:53.362Z,4.80
2022-08-20T02:42:53.383Z,4.90
2022-08-20T02:43:53.311Z,4.90
2022-08-20T02:44:53.328Z,4.90
2022-08-20T02:45:53.497Z,4.70
2022-08-20T02:46:53.307Z,5.00
2022-08-20T02:47:53.253Z,4.90
2022-08-20T02:48:53.262Z,5.00
2022-08-20T02:49:53.210Z,4.80
2022-08-20T02:50:53.216Z,5.10
2022-08-20T02:51:53.220Z,5.10
2022-08-20T02:52:53.082Z,4.80
2022-08-20T02:53:53.153Z,4.90
2022-08-20T02:54:53.162Z,5.10
2022-08-20T02:55:53.121Z,4.90
2022-08-20T02:56:53.011Z,4.50
2022-08-20T02:57:52.990Z,4.40
2022-08-20T02:58:52.996Z,4.40
2022-08-20T02:59:52.957Z,4.80
2022-08-20T03:00:52.925Z,4.50
2022-08-20T03:01:59.987Z,5.70
2022-08-20T03:02:53.999Z,5.00
2022-08-20T03:03:52.872Z,4.80
2022-08-20T03:04:52.841Z,4.80
2022-08-20T03:05:52.925Z,5.00
2022-08-20T03:06:53.153Z,4.50
2022-08-20T03:07:52.936Z,4.90
2022-08-20T03:08:52.799Z,4.70
2022-08-20T03:09:52.772Z,5.30
2022-08-20T03:10:52.733Z,4.70
2022-08-20T03:11:52.777Z,4.80
2022-08-20T03:12:52.754Z,4.60
2022-08-20T03:13:52.715Z,4.60
2022-08-20T03:14:52.710Z,5.30
2022-08-20T03:15:56.605Z,5.40
2022-08-20T03:16:53.718Z,5.40
2022-08-20T03:17:52.666Z,5.60
2022-08-20T03:18:52.612Z,5.70
2022-08-20T03:19:52.595Z,5.50
2022-08-20T03:20:52.557Z,6.40
2022-08-20T03:21:52.528Z,5.70
2022-08-20T03:22:52.535Z,6.10
2022-08-20T03:23:52.532Z,5.90
2022-08-20T03:24:52.506Z,6.20
2022-08-20T03:25:52.483Z,5.80
2022-08-20T03:26:52.449Z,6.20
2022-08-20T03:27:54.434Z,5.80
2022-08-20T03:28:52.449Z,5.70
2022-08-20T03:29:52.406Z,6.40
2022-08-20T03:30:52.405Z,6.00
2022-08-20T03:31:52.364Z,6.60
2022-08-20T03:32:52.394Z,6.40
2022-08-20T03:33:53.363Z,6.80
2022-08-20T03:34:52.322Z,6.30
2022-08-20T03:35:52.330Z,6.00
2022-08-20T03:36:52.292Z,6.70
2022-08-20T03:37:52.269Z,6.30
2022-08-20T03:38:52.257Z,6.20
2022-08-20T03:39:52.334Z,6.20
2022-08-20T03:40:52.229Z,6.50
2022-08-20T03:41:52.213Z,6.30
2022-08-20T03:42:52.192Z,6.50
2022-08-20T03:43:52.203Z,5.80
2022-08-20T03:44:58.879Z,5.30
2022-08-20T03:45:53.104Z,6.00
2022-08-20T03:46:52.114Z,5.90
2022-08-20T03:47:52.111Z,5.80
2022-08-20T03:48:59.602Z,6.20
2022-08-20T03:49:53.068Z,6.20
2022-08-20T03:50:52.042Z,5.70
2022-08-20T03:51:57.144Z,6.20
2022-08-20T03:52:52.988Z,5.90
2022-08-20T03:53:52.018Z,6.20
2022-08-20T03:54:51.960Z,6.10
2022-08-20T03:55:53.773Z,5.90
2022-08-20T03:56:51.913Z,5.50
2022-08-20T03:57:51.962Z,6.30
2022-08-20T03:58:51.892Z,6.10
2022-08-20T03:59:58.043Z,6.90
2022-08-20T04:00:52.966Z,6.00
2022-08-20T04:01:51.862Z,5.70
2022-08-20T04:02:51.791Z,5.60
2022-08-20T04:03:55.091Z,5.80
2022-08-20T04:04:51.777Z,5.50
2022-08-20T04:05:51.761Z,5.90
2022-08-20T04:06:51.775Z,5.80
2022-08-20T04:07:51.815Z,6.10
2022-08-20T04:08:51.864Z,6.50
2022-08-20T04:09:51.684Z,5.80
2022-08-20T04:10:51.680Z,6.10
2022-08-20T04:11:51.680Z,5.80
2022-08-20T04:12:52.831Z,6.00
2022-08-20T04:13:51.610Z,6.20
2022-08-20T04:14:51.621Z,6.70
2022-08-20T04:15:51.568Z,6.70
2022-08-20T04:16:51.584Z,6.50
2022-08-20T04:17:51.589Z,6.50
2022-08-20T04:18:56.119Z,6.60
2022-08-20T04:19:52.531Z,7.00
2022-08-20T04:20:51.484Z,6.90
2022-08-20T04:21:51.500Z,6.40
2022-08-20T04:22:58.583Z,6.50
2022-08-20T04:23:52.422Z,6.90
2022-08-20T04:24:51.406Z,6.20
2022-08-20T04:25:51.374Z,6.60
2022-08-20T04:26:51.366Z,6.70
2022-08-20T04:27:51.399Z,6.90
2022-08-20T04:28:51.326Z,6.80
2022-08-20T04:29:51.322Z,6.50
2022-08-20T04:30:52.037Z,7.10
2022-08-20T04:31:51.248Z,7.20
2022-08-20T04:32:51.276Z,7.00
2022-08-20T04:33:51.219Z,7.10
2022-08-20T04:34:51.194Z,7.60
2022-08-20T04:35:51.223Z,8.20
2022-08-20T04:36:51.168Z,7.90
2022-08-20T04:37:51.205Z,8.10
2022-08-20T04:38:51.240Z,8.40
2022-08-20T04:39:51.145Z,8.70
2022-08-20T04:40:51.128Z,8.20
2022-08-20T04:41:51.090Z,8.90
2022-08-20T04:42:51.829Z,8.10
2022-08-20T04:43:51.076Z,8.20
2022-08-20T04:44:51.046Z,8.70
2022-08-20T04:45:51.056Z,8.00
2022-08-20T04:46:51.001Z,8.10
2022-08-20T04:47:50.963Z,8.10
2022-08-20T04:48:51.005Z,8.30
2022-08-20T04:49:50.924Z,8.40
2022-08-20T04:50:50.921Z,8.80
2022-08-20T04:51:50.871Z,8.70
2022-08-20T04:52:50.858Z,8.50
2022-08-20T04:53:53.223Z,8.60
2022-08-20T04:54:50.846Z,8.60
2022-08-20T04:55:50.840Z,9.00
2022-08-20T04:56:50.800Z,8.50
2022-08-20T04:57:50.795Z,8.80
2022-08-20T04:58:50.771Z,9.40
2022-08-20T04:59:50.778Z,9.30
2022-08-20T05:00:50.735Z,8.70
2022-08-20T05:01:50.742Z,9.00
2022-08-20T05:02:50.686Z,8.50
2022-08-20T05:03:50.646Z,8.00
2022-08-20T05:04:50.682Z,8.10
2022-08-20T05:05:50.625Z,8.00
2022-08-20T05:06:50.634Z,8.40
2022-08-20T05:07:50.605Z,8.80
2022-08-20T05:08:50.582Z,8.50
2022-08-20T05:09:50.544Z,8.60
2022-08-20T05:10:50.549Z,8.80
2022-08-20T05:11:51.526Z,8.40
2022-08-20T05:12:53.498Z,8.20
2022-08-20T05:13:51.467Z,8.20
2022-08-20T05:14:50.451Z,9.10
2022-08-20T05:15:50.498Z,8.60
2022-08-20T05:16:50.452Z,8.70
2022-08-20T05:17:50.419Z,8.30
2022-08-20T05:18:52.523Z,8.40
2022-08-20T05:19:50.359Z,8.70
2022-08-20T05:20:50.366Z,9.00
2022-08-20T05:21:50.396Z,9.10
2022-08-20T05:22:50.291Z,9.30
2022-08-20T05:23:50.294Z,9.00
2022-08-20T05:24:50.274Z,9.00
2022-08-20T05:25:50.254Z,9.40
2022-08-20T05:26:50.355Z,9.30
2022-08-20T05:27:50.232Z,9.30
2022-08-20T05:28:57.386Z,9.30
2022-08-20T05:29:51.181Z,10.60
2022-08-20T05:30:50.161Z,9.40
2022-08-20T05:31:50.160Z,9.60
2022-08-20T05:32:50.114Z,10.00
2022-08-20T05:33:50.100Z,10.10
2022-08-20T05:34:50.087Z,9.70
2022-08-20T05:35:50.062Z,10.00
2022-08-20T05:36:50.064Z,10.10
2022-08-20T05:37:50.101Z,10.60
2022-08-20T05:38:49.986Z,10.10
2022-08-20T05:39:50.022Z,10.30
2022-08-20T05:40:50.010Z,10.10
2022-08-20T05:41:49.956Z,10.50
2022-08-20T05:42:49.995Z,11.50
2022-08-20T05:43:51.413Z,11.20
2022-08-20T05:44:50.008Z,12.50
2022-08-20T05:45:53.439Z,13.10
2022-08-20T05:46:50.844Z,13.20
2022-08-20T05:47:56.437Z,14.80
2022-08-20T05:48:50.817Z,13.40
2022-08-20T05:49:49.818Z,14.20
2022-08-20T05:50:49.897Z,13.50
2022-08-20T05:51:49.789Z,14.10
2022-08-20T05:52:49.902Z,13.50
2022-08-20T05:53:49.779Z,13.50
2022-08-20T05:54:49.833Z,12.40
2022-08-20T05:55:49.713Z,12.30
2022-08-20T05:56:49.800Z,10.80
2022-08-20T05:57:49.684Z,10.70
2022-08-20T05:58:49.709Z,10.30
2022-08-20T05:59:49.608Z,10.20
2022-08-20T06:00:49.799Z,10.70
2022-08-20T06:01:49.603Z,10.00
2022-08-20T06:02:49.666Z,10.70
2022-08-20T06:03:49.583Z,9.80
2022-08-20T06:04:56.230Z,10.40
2022-08-20T06:05:50.529Z,10.20
2022-08-20T06:06:49.591Z,10.40
2022-08-20T06:07:49.562Z,10.10
2022-08-20T06:08:49.595Z,10.60
2022-08-20T06:09:49.459Z,10.30
2022-08-20T06:10:49.517Z,10.10
2022-08-20T06:11:49.388Z,9.50
2022-08-20T06:12:49.498Z,10.00
2022-08-20T06:13:49.354Z,9.90
2022-08-20T06:14:49.464Z,9.20
2022-08-20T06:15:49.330Z,9.70
2022-08-20T06:16:57.629Z,9.50
2022-08-20T06:17:58.153Z,9.70
2022-08-20T06:18:50.392Z,9.90
2022-08-20T06:19:49.816Z,9.50
2022-08-20T06:20:49.378Z,9.70
2022-08-20T06:21:49.233Z,9.00
2022-08-20T06:22:49.301Z,9.10
2022-08-20T06:23:57.466Z,9.30
2022-08-20T06:24:50.335Z,10.00
2022-08-20T06:25:49.148Z,8.80
2022-08-20T06:26:49.207Z,9.70
2022-08-20T06:27:49.221Z,9.20
2022-08-20T06:28:49.183Z,9.20
2022-08-20T06:29:50.100Z,9.20
2022-08-20T06:30:49.213Z,9.40
2022-08-20T06:31:49.019Z,9.10
2022-08-20T06:32:49.126Z,9.00
2022-08-20T06:33:48.983Z,8.80
2022-08-20T06:34:50.807Z,8.40
2022-08-20T06:35:48.992Z,8.50
2022-08-20T06:36:49.046Z,8.60
2022-08-20T06:37:48.917Z,9.20
2022-08-20T06:38:49.044Z,9.00
2022-08-20T06:39:48.947Z,8.80
2022-08-20T06:40:49.023Z,9.00
2022-08-20T06:41:48.849Z,8.40
2022-08-20T06:42:49.112Z,8.60
2022-08-20T06:43:48.819Z,9.00
2022-08-20T06:44:48.929Z,9.00
2022-08-20T06:45:48.778Z,9.10
2022-08-20T06:46:48.878Z,8.70
2022-08-20T06:47:48.725Z,8.40
2022-08-20T06:48:48.793Z,9.10
2022-08-20T06:49:48.685Z,8.60
2022-08-20T06:50:48.786Z,8.30
2022-08-20T06:51:51.924Z,8.60
2022-08-20T06:52:52.812Z,8.50
2022-08-20T06:53:49.619Z,8.80
2022-08-20T06:54:48.743Z,7.70
2022-08-20T06:55:48.756Z,8.40
2022-08-20T06:56:48.691Z,8.20
2022-08-20T06:57:48.552Z,8.60
2022-08-20T06:58:48.607Z,8.30
2022-08-20T06:59:49.031Z,8.10
2022-08-20T07:00:49.628Z,8.30
2022-08-20T07:01:48.455Z,8.20
2022-08-20T07:02:48.581Z,8.10
2022-08-20T07:03:55.838Z,8.00
2022-08-20T07:04:49.524Z,8.10
2022-08-20T07:05:48.414Z,7.50
2022-08-20T07:06:48.469Z,7.80
2022-08-20T07:07:48.396Z,8.40
2022-08-20T07:08:48.436Z,8.60
2022-08-20T07:09:48.315Z,8.50
2022-08-20T07:10:48.443Z,7.90
2022-08-20T07:11:48.296Z,7.50
2022-08-20T07:12:48.384Z,8.10
2022-08-20T07:13:48.223Z,7.20
2022-08-20T07:14:48.305Z,7.60
2022-08-20T07:15:48.214Z,6.70
2022-08-20T07:16:48.288Z,7.10
2022-08-20T07:17:48.166Z,6.60
2022-08-20T07:18:48.248Z,6.60
2022-08-20T07:19:48.113Z,6.50
2022-08-20T07:20:48.206Z,6.60
2022-08-20T07:21:48.075Z,6.50
2022-08-20T07:22:48.146Z,7.00
2022-08-20T07:23:48.086Z,6.40
2022-08-20T07:24:49.231Z,6.10
2022-08-20T07:25:48.002Z,7.10
2022-08-20T07:26:48.085Z,6.30
2022-08-20T07:27:47.980Z,6.60
2022-08-20T07:28:48.149Z,7.10
2022-08-20T07:29:47.941Z,6.90
2022-08-20T07:30:57.104Z,6.60
2022-08-20T07:31:48.897Z,6.10
2022-08-20T07:32:48.000Z,5.90
2022-08-20T07:33:50.234Z,6.10
2022-08-20T07:34:47.979Z,6.20
2022-08-20T07:35:47.806Z,6.00
2022-08-20T07:36:48.177Z,6.70
2022-08-20T07:37:47.784Z,5.90
2022-08-20T07:38:47.838Z,6.20
2022-08-20T07:39:47.782Z,6.00
2022-08-20T07:40:47.831Z,5.70
2022-08-20T07:41:56.552Z,5.80
2022-08-20T07:42:49.355Z,6.10
2022-08-20T07:43:47.654Z,5.40
2022-08-20T07:44:47.860Z,5.50
2022-08-20T07:45:52.132Z,6.10
2022-08-20T07:46:47.770Z,5.80
2022-08-20T07:47:47.579Z,6.20
2022-08-20T07:48:47.647Z,5.70
2022-08-20T07:49:47.548Z,5.50
2022-08-20T07:50:47.641Z,5.70
2022-08-20T07:51:47.501Z,5.50
2022-08-20T07:52:47.617Z,4.50
2022-08-20T07:53:47.482Z,4.40
2022-08-20T07:54:47.572Z,4.30
2022-08-20T07:55:57.144Z,4.00
2022-08-20T07:56:48.542Z,4.50
2022-08-20T07:57:47.401Z,4.80
2022-08-20T07:58:47.490Z,4.80
2022-08-20T07:59:47.384Z,4.80
2022-08-20T08:00:47.654Z,4.80
2022-08-20T08:01:47.340Z,4.60
2022-08-20T08:02:47.493Z,4.30
2022-08-20T08:03:50.481Z,4.60
2022-08-20T08:04:47.365Z,4.50
2022-08-20T08:05:47.319Z,4.80
2022-08-20T08:06:47.351Z,4.70
2022-08-20T08:07:47.263Z,3.90
2022-08-20T08:08:47.314Z,4.50
2022-08-20T08:09:47.174Z,4.10
2022-08-20T08:10:47.282Z,3.90
2022-08-20T08:11:47.786Z,3.70
2022-08-20T08:12:47.244Z,3.80
2022-08-20T08:13:47.118Z,4.10
2022-08-20T08:14:47.177Z,3.90
2022-08-20T08:15:47.071Z,4.10
2022-08-20T08:16:47.191Z,3.80
2022-08-20T08:17:47.037Z,3.80
2022-08-20T08:18:47.146Z,4.20
2022-08-20T08:19:47.013Z,4.10
2022-08-20T08:20:47.185Z,3.60
2022-08-20T08:21:47.010Z,4.10
2022-08-20T08:22:47.073Z,3.50
2022-08-20T08:23:46.957Z,3.30
2022-08-20T08:24:57.282Z,3.20
2022-08-20T08:25:47.907Z,3.90
2022-08-20T08:26:46.985Z,8.50
2022-08-20T08:27:46.899Z,3.60
2022-08-20T08:28:46.914Z,3.40
2022-08-20T08:29:46.791Z,3.90
2022-08-20T08:30:46.883Z,4.00
2022-08-20T08:31:46.873Z,4.00
2022-08-20T08:32:46.900Z,3.80
2022-08-20T08:33:46.724Z,3.70
2022-08-20T08:34:46.788Z,3.70
2022-08-20T08:35:46.717Z,3.60
2022-08-20T08:36:46.860Z,3.90
2022-08-20T08:37:46.644Z,4.60
2022-08-20T08:38:46.786Z,4.50
2022-08-20T08:39:46.624Z,4.40
2022-08-20T08:40:46.695Z,4.30
2022-08-20T08:41:46.653Z,4.70
2022-08-20T08:42:46.666Z,4.30
2022-08-20T08:43:46.561Z,4.80
2022-08-20T08:44:46.624Z,4.30
2022-08-20T08:45:46.541Z,4.30
2022-08-20T08:46:46.586Z,4.30
2022-08-20T08:47:46.491Z,4.20
2022-08-20T08:48:46.614Z,4.50
2022-08-20T08:49:46.444Z,4.30
2022-08-20T08:50:53.794Z,4.00
2022-08-20T08:51:47.370Z,3.80
2022-08-20T08:52:46.466Z,4.00
2022-08-20T08:53:46.383Z,4.30
2022-08-20T08:54:46.421Z,3.90
2022-08-20T08:55:46.320Z,4.20
2022-08-20T08:56:50.427Z,3.70
2022-08-20T08:57:46.281Z,4.00
2022-08-20T08:58:46.344Z,3.70
2022-08-20T08:59:52.502Z,3.50
2022-08-20T09:00:52.812Z,3.90
2022-08-20T09:01:53.861Z,3.30
2022-08-20T09:02:47.368Z,3.50
2022-08-20T09:03:46.168Z,3.60
2022-08-20T09:04:46.265Z,3.30
2022-08-20T09:05:46.107Z,3.80
2022-08-20T09:06:48.398Z,3.80
2022-08-20T09:07:47.123Z,3.70
2022-08-20T09:08:46.147Z,3.90
2022-08-20T09:09:46.054Z,3.80
2022-08-20T09:10:46.178Z,3.70
2022-08-20T09:11:46.005Z,3.60
2022-08-20T09:12:47.836Z,3.70
2022-08-20T09:13:46.021Z,4.10
2022-08-20T09:14:46.052Z,3.80
2022-08-20T09:15:45.993Z,4.00
2022-08-20T09:16:53.037Z,4.20
2022-08-20T09:17:46.902Z,4.00
2022-08-20T09:18:45.985Z,4.70
2022-08-20T09:19:45.884Z,4.40
2022-08-20T09:20:45.960Z,4.80
2022-08-20T09:21:45.813Z,4.30
2022-08-20T09:22:45.901Z,4.40
2022-08-20T09:23:45.765Z,4.10
2022-08-20T09:24:45.858Z,3.60
2022-08-20T09:25:45.759Z,3.70
2022-08-20T09:26:45.881Z,3.70
2022-08-20T09:27:45.722Z,3.10
2022-08-20T09:28:51.212Z,3.30
2022-08-20T09:29:46.682Z,3.60
2022-08-20T09:30:45.743Z,3.00
2022-08-20T09:31:46.440Z,3.20
2022-08-20T09:32:45.726Z,3.30
2022-08-20T09:33:45.599Z,3.50
2022-08-20T09:34:45.652Z,3.30
2022-08-20T09:35:45.540Z,3.10
2022-08-20T09:36:45.631Z,3.40
2022-08-20T09:37:45.535Z,2.90
2022-08-20T09:38:45.573Z,3.10
2022-08-20T09:39:45.528Z,3.10
2022-08-20T09:40:45.525Z,3.40
2022-08-20T09:41:45.435Z,3.10
2022-08-20T09:42:45.515Z,3.60
2022-08-20T09:43:45.382Z,3.20
2022-08-20T09:44:45.537Z,3.40
2022-08-20T09:45:45.372Z,3.40
2022-08-20T09:46:45.469Z,3.50
2022-08-20T09:47:54.743Z,3.40
2022-08-20T09:48:46.400Z,3.50
2022-08-20T09:49:45.301Z,3.10
2022-08-20T09:50:45.356Z,3.20
2022-08-20T09:51:45.258Z,3.30
2022-08-20T09:52:45.420Z,3.50
2022-08-20T09:53:45.207Z,3.30
2022-08-20T09:54:46.599Z,3.30
2022-08-20T09:55:45.205Z,3.30
2022-08-20T09:56:45.268Z,3.20
2022-08-20T09:57:45.119Z,3.50
2022-08-20T09:58:45.233Z,3.20
2022-08-20T09:59:45.091Z,3.20
2022-08-20T10:00:45.228Z,3.10
2022-08-20T10:01:45.076Z,3.20
2022-08-20T10:02:45.109Z,3.50
2022-08-20T10:03:45.075Z,4.20
2022-08-20T10:04:45.103Z,3.50
2022-08-20T10:05:44.964Z,3.40
2022-08-20T10:06:45.069Z,3.50
2022-08-20T10:07:44.992Z,3.60
2022-08-20T10:08:45.077Z,3.50
2022-08-20T10:09:44.885Z,3.90
2022-08-20T10:10:45.006Z,3.70
2022-08-20T10:11:44.866Z,3.30
2022-08-20T10:12:44.948Z,3.70
2022-08-20T10:13:44.872Z,3.40
2022-08-20T10:14:44.915Z,3.30
2022-08-20T10:15:44.766Z,3.00
2022-08-20T10:16:44.946Z,3.00
2022-08-20T10:17:44.744Z,2.80
2022-08-20T10:18:44.911Z,2.70
2022-08-20T10:19:44.738Z,2.90
2022-08-20T10:20:44.773Z,3.00
2022-08-20T10:21:44.668Z,3.20
2022-08-20T10:22:44.750Z,2.70
2022-08-20T10:23:44.614Z,2.90
2022-08-20T10:24:44.760Z,3.10
2022-08-20T10:25:44.593Z,6.20
2022-08-20T10:26:44.680Z,2.80
2022-08-20T10:27:44.587Z,3.30
2022-08-20T10:28:44.647Z,2.50
2022-08-20T10:29:47.068Z,2.80
2022-08-20T10:30:44.669Z,2.80
2022-08-20T10:31:44.598Z,2.80
2022-08-20T10:32:44.562Z,2.60
2022-08-20T10:33:44.547Z,2.90
2022-08-20T10:34:44.610Z,2.80
2022-08-20T10:35:44.551Z,3.20
2022-08-20T10:36:44.488Z,3.20
2022-08-20T10:37:44.471Z,3.20
2022-08-20T10:38:44.430Z,3.20
2022-08-20T10:39:44.486Z,2.70
2022-08-20T10:40:49.811Z,2.30
2022-08-20T10:41:45.303Z,2.20
2022-08-20T10:42:44.920Z,2.00
2022-08-20T10:43:44.430Z,2.00
2022-08-20T10:44:44.368Z,2.00
2022-08-20T10:45:44.378Z,2.10
2022-08-20T10:46:44.309Z,2.00
2022-08-20T10:47:44.545Z,1.90
2022-08-20T10:48:44.268Z,1.60
2022-08-20T10:49:44.260Z,1.50
2022-08-20T10:50:44.241Z,1.50
2022-08-20T10:51:44.237Z,1.80
2022-08-20T10:52:44.172Z,1.40
2022-08-20T10:53:44.190Z,1.50
2022-08-20T10:54:44.173Z,1.20
2022-08-20T10:55:44.144Z,1.30
2022-08-20T10:56:44.145Z,1.10
2022-08-20T10:57:44.090Z,0.90
2022-08-20T10:58:44.540Z,1.00
2022-08-20T10:59:44.122Z,1.00
2022-08-20T11:00:44.055Z,1.10
2022-08-20T11:01:44.634Z,0.80
2022-08-20T11:02:44.013Z,1.20
2022-08-20T11:03:44.020Z,1.00
2022-08-20T11:04:43.960Z,1.20
2022-08-20T11:05:43.933Z,1.20
2022-08-20T11:06:43.948Z,0.90
2022-08-20T11:07:54.711Z,1.00
2022-08-20T11:08:44.891Z,0.70
2022-08-20T11:09:43.990Z,1.10
2022-08-20T11:10:43.851Z,0.90
2022-08-20T11:11:44.090Z,1.00
2022-08-20T11:12:46.089Z,0.90
2022-08-20T11:13:43.779Z,1.20
2022-08-20T11:14:43.793Z,1.00
2022-08-20T11:15:43.773Z,1.20
2022-08-20T11:16:43.737Z,1.60
2022-08-20T11:17:43.797Z,1.60
2022-08-20T11:18:47.445Z,1.70
2022-08-20T11:19:43.678Z,1.60
2022-08-20T11:20:43.658Z,2.10
2022-08-20T11:21:43.675Z,1.80
2022-08-20T11:22:43.671Z,1.60
2022-08-20T11:23:43.685Z,1.60
2022-08-20T11:24:43.648Z,1.60
2022-08-20T11:25:43.581Z,2.70
2022-08-20T11:26:43.605Z,4.40
2022-08-20T11:27:43.541Z,2.30
2022-08-20T11:28:43.540Z,1.80
2022-08-20T11:29:43.495Z,2.20
2022-08-20T11:30:43.467Z,1.90
2022-08-20T11:31:43.460Z,3.70
2022-08-20T11:32:43.446Z,2.10
2022-08-20T11:33:43.427Z,2.00
2022-08-20T11:34:43.462Z,2.30
2022-08-20T11:35:49.183Z,2.10
2022-08-20T11:36:44.390Z,1.70
2022-08-20T11:37:43.384Z,1.70
2022-08-20T11:38:43.318Z,2.20
2022-08-20T11:39:43.394Z,1.90
2022-08-20T11:40:43.382Z,1.80
2022-08-20T11:41:45.818Z,1.80
2022-08-20T11:43:04.315Z,1.90
2022-08-20T11:43:59.528Z,2.30
2022-08-20T11:44:44.245Z,2.40
2022-08-20T11:45:43.279Z,2.20
2022-08-20T11:46:43.286Z,2.20
2022-08-20T11:47:43.198Z,2.00
2022-08-20T11:48:43.157Z,2.30
2022-08-20T11:49:43.163Z,2.10
2022-08-20T11:50:43.149Z,2.30
2022-08-20T11:51:50.168Z,2.00
2022-08-20T11:52:44.105Z,2.30
2022-08-20T11:53:43.067Z,2.50
2022-08-20T11:54:43.070Z,2.50
2022-08-20T11:55:43.043Z,2.20
2022-08-20T11:56:45.039Z,2.10
2022-08-20T11:57:43.033Z,2.30
2022-08-20T11:58:43.025Z,3.00
2022-08-20T11:59:42.951Z,2.20
2022-08-20T12:00:42.975Z,2.20
2022-08-20T12:01:46.657Z,2.10
2022-08-20T12:02:44.132Z,2.30
2022-08-20T12:03:42.916Z,2.80
2022-08-20T12:04:42.894Z,2.40
2022-08-20T12:05:42.872Z,2.50
2022-08-20T12:06:42.891Z,3.00
2022-08-20T12:07:42.808Z,3.00
2022-08-20T12:08:42.852Z,3.40
2022-08-20T12:09:43.164Z,3.50
2022-08-20T12:10:43.771Z,3.40
2022-08-20T12:11:42.794Z,3.70
2022-08-20T12:12:42.794Z,3.30
2022-08-20T12:13:57.548Z,2.70
2022-08-20T12:14:42.778Z,3.10
2022-08-20T12:15:42.681Z,3.20
2022-08-20T12:16:42.675Z,2.80
2022-08-20T12:17:42.667Z,2.90
2022-08-20T12:18:42.681Z,2.90
2022-08-20T12:19:42.634Z,3.10
2022-08-20T12:20:42.619Z,3.00
2022-08-20T12:21:42.594Z,2.80
2022-08-20T12:22:42.542Z,3.00
2022-08-20T12:23:42.538Z,3.20
2022-08-20T12:24:42.527Z,2.90
2022-08-20T12:25:42.506Z,2.30
2022-08-20T12:26:42.499Z,2.60
2022-08-20T12:27:42.508Z,2.60
2022-08-20T12:28:42.424Z,2.70
2022-08-20T12:29:42.403Z,2.50
2022-08-20T12:30:42.445Z,3.20
2022-08-20T12:31:42.370Z,2.80
2022-08-20T12:32:42.354Z,3.00
2022-08-20T12:33:42.356Z,2.80
2022-08-20T12:34:42.328Z,2.60
2022-08-20T12:35:42.359Z,2.70
2022-08-20T12:36:42.355Z,3.00
2022-08-20T12:37:42.285Z,2.80
2022-08-20T12:38:42.266Z,2.60
2022-08-20T12:39:42.319Z,2.30
2022-08-20T12:40:42.240Z,2.30
2022-08-20T12:41:42.242Z,1.80
2022-08-20T12:42:42.298Z,1.80
2022-08-20T12:43:42.219Z,2.10
2022-08-20T12:44:43.024Z,1.80
2022-08-20T12:45:42.259Z,2.20
2022-08-20T12:46:42.210Z,1.90
2022-08-20T12:47:42.125Z,1.70
2022-08-20T12:48:42.960Z,1.70
2022-08-20T12:49:42.097Z,1.50
2022-08-20T12:50:42.030Z,1.70
2022-08-20T12:51:42.079Z,1.50
2022-08-20T12:52:41.971Z,1.90
2022-08-20T12:53:43.005Z,1.90
2022-08-20T12:54:42.084Z,1.90
2022-08-20T12:55:41.989Z,2.00
2022-08-20T12:56:42.001Z,2.10
2022-08-20T12:57:41.981Z,1.60
2022-08-20T12:58:41.865Z,2.00
2022-08-20T12:59:41.935Z,1.80
2022-08-20T13:00:43.218Z,2.00
2022-08-20T13:01:41.984Z,1.90
2022-08-20T13:02:41.967Z,1.90
2022-08-20T13:03:45.149Z,2.20
2022-08-20T13:04:41.834Z,1.90
2022-08-20T13:05:41.822Z,1.80
2022-08-20T13:06:41.819Z,1.50
2022-08-20T13:07:41.744Z,1.70
2022-08-20T13:08:41.761Z,1.50
2022-08-20T13:09:41.735Z,1.80
2022-08-20T13:10:41.671Z,1.90
2022-08-20T13:11:41.725Z,2.00
2022-08-20T13:12:42.050Z,1.80
2022-08-20T13:13:41.662Z,1.60
2022-08-20T13:14:41.648Z,1.50
2022-08-20T13:15:41.656Z,1.60
2022-08-20T13:16:41.559Z,1.80
2022-08-20T13:17:41.622Z,5.70